Time;durP1;ratioP1;P1;durP2;ratioP2;P2;SDS_P1;SDS_P2;PMS_P1;PMS_P2;Temp;Humidity;BMP_temperature;BMP_pressure;BME280_temperature;BME280_humidity;BME280_pressure;Samples;Min_cycle;Max_cycle;Signal;HPM_P1;HPM_P2
2024/01/03 00:02:20;;;;;;;4.17;1.10;;;10.90;99.90;;;;;;5051680;28;20029;-52
2024/01/03 00:04:46;;;;;;;6.03;1.27;;;10.90;99.90;;;;;;5051750;28;20392;-51
2024/01/03 00:07:13;;;;;;;8.37;1.43;;;10.80;99.90;;;;;;5052020;28;20548;-51
2024/01/03 00:09:39;;;;;;;3.97;1.10;;;10.80;99.90;;;;;;5051362;28;20048;-52
2024/01/03 00:12:07;;;;;;;7.83;1.10;;;10.80;99.90;;;;;;5051548;28;20029;-53
2024/01/03 00:14:34;;;;;;;8.47;1.27;;;10.70;99.90;;;;;;5051652;28;20071;-54
2024/01/03 00:17:07;;;;;;;7.13;1.60;;;10.70;99.90;;;;;;5051910;28;20032;-52
2024/01/03 00:19:35;;;;;;;5.90;0.87;;;10.70;99.90;;;;;;5051360;28;20037;-56
2024/01/03 00:22:01;;;;;;;7.40;2.17;;;10.70;99.90;;;;;;5051464;28;20086;-53
2024/01/03 00:24:28;;;;;;;7.63;1.70;;;10.70;99.90;;;;;;5033750;28;20503;-53
2024/01/03 00:26:54;;;;;;;8.93;1.50;;;10.70;99.90;;;;;;5051554;28;20112;-55
2024/01/03 00:29:22;;;;;;;8.27;1.73;;;10.70;99.90;;;;;;5033334;28;20163;-54
2024/01/03 00:31:48;;;;;;;6.32;1.15;;;10.60;99.90;;;;;;5033510;28;20037;-55
2024/01/03 00:34:36;;;;;;;6.33;1.13;;;10.50;99.90;;;;;;5033608;28;20455;-54
2024/01/03 00:37:16;;;;;;;7.80;1.40;;;10.40;99.90;;;;;;5033648;28;20503;-55
2024/01/03 00:39:42;;;;;;;5.43;1.57;;;10.50;99.90;;;;;;5033345;28;20036;-53
2024/01/03 00:42:08;;;;;;;8.67;1.27;;;10.50;99.90;;;;;;5033476;28;20041;-53
2024/01/03 00:44:33;;;;;;;5.27;1.40;;;10.50;99.90;;;;;;5051288;28;20029;-54
2024/01/03 00:46:59;;;;;;;4.47;0.70;;;10.50;99.90;;;;;;5033402;28;20043;-54
2024/01/03 00:49:25;;;;;;;8.43;1.00;;;10.50;99.90;;;;;;5033168;28;20044;-52
2024/01/03 00:51:51;;;;;;;7.53;1.37;;;10.50;99.90;;;;;;5051144;28;20021;-56
2024/01/03 00:54:18;;;;;;;7.63;1.03;;;10.40;99.90;;;;;;5033475;28;20037;-54
2024/01/03 00:56:45;;;;;;;8.57;1.07;;;10.40;99.90;;;;;;5051232;28;20037;-55
2024/01/03 00:59:12;;;;;;;6.93;1.20;;;10.40;99.90;;;;;;5033026;28;20025;-54
2024/01/03 01:01:38;;;;;;;10.57;1.20;;;10.40;99.90;;;;;;5033052;28;20036;-52
2024/01/03 01:04:04;;;;;;;4.10;1.60;;;10.40;99.90;;;;;;5033208;28;20033;-54
2024/01/03 01:06:30;;;;;;;5.93;1.00;;;10.50;99.90;;;;;;5051476;28;20451;-56
2024/01/03 01:08:57;;;;;;;6.60;1.30;;;10.50;99.90;;;;;;5053123;28;20025;-55
2024/01/03 01:11:23;;;;;;;6.50;1.30;;;10.50;99.90;;;;;;5054635;28;20557;-55
2024/01/03 01:13:48;;;;;;;12.17;1.40;;;10.50;99.90;;;;;;5036750;28;20112;-54
2024/01/03 01:16:14;;;;;;;12.53;1.23;;;10.60;99.90;;;;;;5054568;28;20440;-53
2024/01/03 01:18:40;;;;;;;7.67;1.23;;;10.50;99.90;;;;;;5054376;28;20079;-55
2024/01/03 01:21:05;;;;;;;8.77;1.30;;;10.60;99.90;;;;;;5036570;28;20033;-55
2024/01/03 01:23:31;;;;;;;7.03;1.73;;;10.60;99.90;;;;;;5054590;28;20113;-55
2024/01/03 01:25:57;;;;;;;7.47;1.83;;;10.50;99.90;;;;;;5036560;28;20079;-52
2024/01/03 01:28:22;;;;;;;6.80;1.63;;;10.50;99.90;;;;;;5054433;28;20033;-54
2024/01/03 01:30:48;;;;;;;6.57;1.40;;;10.50;99.90;;;;;;5036310;28;20068;-55
2024/01/03 01:33:13;;;;;;;6.70;1.53;;;10.50;99.90;;;;;;5036313;28;20507;-55
2024/01/03 01:35:39;;;;;;;13.20;1.20;;;10.40;99.90;;;;;;5036496;28;20033;-54
2024/01/03 01:38:06;;;;;;;7.03;1.43;;;10.40;99.90;;;;;;5036330;28;20394;-52
2024/01/03 01:40:32;;;;;;;9.10;1.37;;;10.30;99.90;;;;;;5036163;28;20114;-50
2024/01/03 01:42:58;;;;;;;13.13;1.50;;;10.40;99.90;;;;;;5036137;28;20037;-55
2024/01/03 01:45:23;;;;;;;4.33;1.37;;;10.30;99.90;;;;;;5054165;28;20055;-56
2024/01/03 01:47:50;;;;;;;6.20;1.37;;;10.30;99.90;;;;;;5036158;28;20375;-56
2024/01/03 01:50:16;;;;;;;12.43;1.60;;;10.30;99.90;;;;;;5035970;28;20127;-52
2024/01/03 01:52:43;;;;;;;3.67;0.93;;;10.30;99.90;;;;;;5054039;28;20036;-56
2024/01/03 01:55:10;;;;;;;7.33;1.07;;;10.30;99.90;;;;;;5054016;28;20021;-53
2024/01/03 01:57:36;;;;;;;12.63;1.40;;;10.40;99.90;;;;;;5036409;28;20472;-55
2024/01/03 02:00:03;;;;;;;4.53;0.80;;;10.40;99.90;;;;;;5035727;28;20117;-56
2024/01/03 02:02:38;;;;;;;6.93;1.07;;;10.40;99.90;;;;;;5054037;28;20036;-54
2024/01/03 02:05:05;;;;;;;6.10;1.37;;;10.30;99.90;;;;;;5053801;28;20543;-59
2024/01/03 02:07:31;;;;;;;3.43;0.87;;;10.30;99.90;;;;;;5053753;28;20033;-53
2024/01/03 02:09:56;;;;;;;8.93;1.00;;;10.30;99.90;;;;;;5035563;28;20025;-56
2024/01/03 02:12:27;;;;;;;9.73;1.47;;;10.30;99.90;;;;;;5019027;28;20370;-52
2024/01/03 02:14:53;;;;;;;5.00;1.07;;;10.30;99.90;;;;;;5053554;28;20437;-54
2024/01/03 02:17:18;;;;;;;9.63;2.30;;;10.30;99.90;;;;;;5035746;28;20033;-54
2024/01/03 02:19:44;;;;;;;6.47;1.00;;;10.40;99.90;;;;;;5034198;28;20025;-54
2024/01/03 02:22:10;;;;;;;8.53;1.27;;;10.40;99.90;;;;;;5053446;28;20040;-52
2024/01/03 02:24:35;;;;;;;10.30;1.43;;;10.40;99.90;;;;;;5053430;28;20029;-52
2024/01/03 02:27:01;;;;;;;6.63;1.37;;;10.40;99.90;;;;;;5035378;28;20029;-52
2024/01/03 02:29:26;;;;;;;4.63;0.93;;;10.30;99.90;;;;;;5035244;28;20025;-55
2024/01/03 02:31:52;;;;;;;7.97;1.13;;;10.30;99.90;;;;;;5035313;28;20107;-51
2024/01/03 02:34:17;;;;;;;5.47;0.90;;;10.20;99.90;;;;;;5053245;28;20033;-54
2024/01/03 02:36:46;;;;;;;8.67;1.13;;;10.30;99.90;;;;;;5053110;28;20053;-53
2024/01/03 02:39:11;;;;;;;8.77;0.90;;;10.20;99.90;;;;;;5052849;28;20083;-55
2024/01/03 02:41:37;;;;;;;5.17;1.00;;;10.20;99.90;;;;;;5052816;28;20124;-51
2024/01/03 02:44:02;;;;;;;4.57;1.00;;;10.10;99.90;;;;;;5052919;28;20386;-55
2024/01/03 02:46:29;;;;;;;5.43;0.93;;;10.10;99.90;;;;;;5052916;28;20412;-54
2024/01/03 02:48:55;;;;;;;8.37;1.63;;;10.10;99.90;;;;;;5052649;28;20029;-53
2024/01/03 02:51:21;;;;;;;7.43;0.97;;;10.00;99.90;;;;;;5052787;28;20025;-53
2024/01/03 02:53:47;;;;;;;4.73;0.80;;;10.00;99.90;;;;;;5052982;28;20104;-56
2024/01/03 02:56:13;;;;;;;6.07;1.40;;;10.10;99.90;;;;;;5052683;28;20043;-54
2024/01/03 02:58:39;;;;;;;2.63;0.60;;;10.10;99.90;;;;;;5052656;28;20438;-53
2024/01/03 03:01:05;;;;;;;4.50;0.60;;;10.10;99.90;;;;;;5052639;28;20029;-53
2024/01/03 03:03:31;;;;;;;7.00;1.70;;;10.20;99.90;;;;;;5052594;28;20525;-54
2024/01/03 03:05:57;;;;;;;6.87;1.20;;;10.20;99.90;;;;;;5052610;28;20028;-53
2024/01/03 03:08:22;;;;;;;2.60;0.80;;;10.20;99.90;;;;;;5034770;28;20044;-55
2024/01/03 03:10:48;;;;;;;8.87;0.83;;;10.30;99.90;;;;;;5052263;28;20116;-55
2024/01/03 03:13:14;;;;;;;4.73;0.60;;;10.30;99.90;;;;;;5034488;28;20029;-52
2024/01/03 03:15:42;;;;;;;3.60;0.73;;;10.30;99.90;;;;;;5052493;28;20025;-55
2024/01/03 03:18:08;;;;;;;4.60;0.50;;;10.40;99.90;;;;;;5052345;28;20044;-53
2024/01/03 03:20:33;;;;;;;2.47;0.67;;;10.40;99.90;;;;;;5052237;28;20029;-56
2024/01/03 03:22:59;;;;;;;7.43;1.20;;;10.40;99.90;;;;;;5052658;28;20587;-55
2024/01/03 03:25:25;;;;;;;4.67;0.97;;;10.40;99.90;;;;;;5034534;28;20091;-56
2024/01/03 03:27:51;;;;;;;6.30;0.80;;;10.40;99.90;;;;;;5052531;28;20405;-53
2024/01/03 03:30:17;;;;;;;5.50;0.97;;;10.30;99.90;;;;;;5052053;28;20499;-56
2024/01/03 03:32:44;;;;;;;4.40;0.90;;;10.30;99.90;;;;;;5051951;28;20124;-56
2024/01/03 03:35:13;;;;;;;3.83;0.57;;;10.30;99.90;;;;;;5052259;28;20049;-54
2024/01/03 03:37:39;;;;;;;2.80;0.60;;;10.40;99.90;;;;;;5052025;28;20041;-55
2024/01/03 03:40:06;;;;;;;9.17;1.37;;;10.40;99.90;;;;;;5051700;28;20072;-53
2024/01/03 03:42:31;;;;;;;4.47;0.50;;;10.40;99.90;;;;;;5051914;28;20025;-54
2024/01/03 03:44:57;;;;;;;7.97;1.30;;;10.50;99.90;;;;;;5051848;28;20519;-54
2024/01/03 03:47:23;;;;;;;7.90;0.90;;;10.50;99.90;;;;;;5051916;28;20055;-57
2024/01/03 03:49:48;;;;;;;5.87;0.70;;;10.40;99.90;;;;;;5051723;28;20516;-53
2024/01/03 03:52:14;;;;;;;4.67;0.53;;;10.40;99.90;;;;;;5051876;28;20033;-55
2024/01/03 03:54:39;;;;;;;3.37;0.70;;;10.40;99.90;;;;;;5051601;28;20029;-56
2024/01/03 03:57:05;;;;;;;10.30;1.20;;;10.40;99.90;;;;;;5052020;28;20036;-55
2024/01/03 03:59:30;;;;;;;5.67;1.13;;;10.40;99.90;;;;;;5051545;28;20112;-53
2024/01/03 04:01:56;;;;;;;6.10;0.90;;;10.40;99.90;;;;;;5051661;28;20044;-54
2024/01/03 04:04:21;;;;;;;4.20;0.70;;;10.40;99.90;;;;;;5051690;28;20037;-53
2024/01/03 04:06:47;;;;;;;4.83;0.57;;;10.40;99.90;;;;;;5051719;28;20032;-51
2024/01/03 04:09:19;;;;;;;6.07;1.17;;;10.40;99.90;;;;;;5051311;28;20451;-56
2024/01/03 04:11:44;;;;;;;1.93;0.60;;;10.40;99.90;;;;;;5051494;28;20033;-55
2024/01/03 04:14:11;;;;;;;6.67;0.90;;;10.40;99.90;;;;;;5051728;28;20055;-53
2024/01/03 04:16:36;;;;;;;3.67;0.70;;;10.30;99.90;;;;;;5051912;28;20025;-56
2024/01/03 04:19:03;;;;;;;3.83;0.83;;;10.30;99.90;;;;;;5051310;28;20025;-56
2024/01/03 04:21:29;;;;;;;7.53;1.13;;;10.20;99.90;;;;;;5051510;28;20617;-53
2024/01/03 04:23:54;;;;;;;6.87;1.07;;;10.20;99.90;;;;;;5051435;28;20028;-54
2024/01/03 04:26:21;;;;;;;3.23;0.63;;;10.20;99.90;;;;;;5051517;28;20474;-54
2024/01/03 04:28:47;;;;;;;4.20;0.83;;;10.20;99.90;;;;;;5051234;28;20021;-52
2024/01/03 04:31:12;;;;;;;3.10;0.50;;;10.10;99.90;;;;;;5051344;28;20033;-54
2024/01/03 04:33:38;;;;;;;3.93;0.80;;;10.10;99.90;;;;;;5051358;28;20039;-54
2024/01/03 04:36:04;;;;;;;4.30;0.83;;;10.10;99.90;;;;;;5051395;28;20031;-55
2024/01/03 04:38:29;;;;;;;5.00;0.70;;;10.10;99.90;;;;;;5051284;28;20040;-51
2024/01/03 04:40:55;;;;;;;4.03;0.83;;;10.10;99.90;;;;;;5051120;28;20025;-50
2024/01/03 04:43:20;;;;;;;7.10;1.27;;;10.10;99.90;;;;;;5052738;28;20024;-55
2024/01/03 04:45:47;;;;;;;2.40;0.80;;;10.10;99.90;;;;;;5055479;28;20119;-52
2024/01/03 04:48:13;;;;;;;2.80;0.90;;;10.10;99.90;;;;;;5055183;28;20029;-56
2024/01/03 04:50:39;;;;;;;7.77;1.83;;;10.10;99.90;;;;;;5054961;28;20032;-55
2024/01/03 04:53:04;;;;;;;4.63;0.63;;;10.20;99.90;;;;;;5055046;28;20029;-55
2024/01/03 04:55:30;;;;;;;4.33;0.50;;;10.20;99.90;;;;;;5055106;28;20074;-54
2024/01/03 04:57:56;;;;;;;4.73;0.80;;;10.30;99.90;;;;;;5054954;28;20470;-56
2024/01/03 05:00:21;;;;;;;5.10;0.70;;;10.30;99.90;;;;;;5036878;28;20116;-56
2024/01/03 05:02:47;;;;;;;6.63;0.70;;;10.30;99.90;;;;;;5054799;28;20029;-54
2024/01/03 05:05:13;;;;;;;7.80;1.27;;;10.30;99.90;;;;;;5054867;28;20029;-55
2024/01/03 05:07:38;;;;;;;3.57;0.40;;;10.30;99.90;;;;;;5054806;28;20143;-55
2024/01/03 05:10:08;;;;;;;4.10;0.80;;;10.40;99.90;;;;;;5054889;28;20041;-54
2024/01/03 05:12:34;;;;;;;3.47;0.50;;;10.40;99.90;;;;;;5054625;28;20112;-54
2024/01/03 05:15:00;;;;;;;7.10;1.20;;;10.40;99.90;;;;;;5054702;28;20488;-53
2024/01/03 05:17:26;;;;;;;5.67;0.87;;;10.40;99.90;;;;;;5054655;28;20048;-51
2024/01/03 05:19:52;;;;;;;2.67;0.63;;;10.40;99.90;;;;;;5054353;28;20029;-54
2024/01/03 05:22:18;;;;;;;3.73;0.70;;;10.40;99.90;;;;;;5054423;28;20020;-53
2024/01/03 05:24:43;;;;;;;6.63;1.17;;;10.40;99.90;;;;;;5054528;28;20072;-54
2024/01/03 05:27:09;;;;;;;3.97;0.60;;;10.50;99.90;;;;;;5054436;28;20115;-53
2024/01/03 05:29:35;;;;;;;3.40;0.60;;;10.50;99.90;;;;;;5054205;28;20037;-56
2024/01/03 05:32:00;;;;;;;1.10;0.50;;;10.50;99.90;;;;;;5054282;28;20535;-52
2024/01/03 05:34:26;;;;;;;2.70;0.60;;;10.50;99.90;;;;;;5054346;28;20021;-54
2024/01/03 05:36:52;;;;;;;3.93;0.57;;;10.50;99.90;;;;;;5054224;28;20029;-55
2024/01/03 05:39:18;;;;;;;0.93;0.53;;;10.50;99.90;;;;;;5054027;28;20079;-54
2024/01/03 05:41:43;;;;;;;2.33;0.50;;;10.50;99.90;;;;;;5054213;28;20057;-51
2024/01/03 05:44:09;;;;;;;5.27;0.40;;;10.40;99.90;;;;;;5054147;28;20043;-55
2024/01/03 05:46:35;;;;;;;1.03;0.30;;;10.40;99.90;;;;;;5054275;28;20029;-56
2024/01/03 05:49:00;;;;;;;3.33;0.47;;;10.40;99.90;;;;;;5053932;28;20021;-52
2024/01/03 05:51:26;;;;;;;0.50;0.20;;;10.40;99.90;;;;;;5053960;28;20033;-56
2024/01/03 05:53:51;;;;;;;3.33;0.60;;;10.40;99.90;;;;;;5053587;28;20060;-54
2024/01/03 05:56:17;;;;;;;4.83;0.67;;;10.40;99.90;;;;;;5054014;28;20036;-52
2024/01/03 05:58:43;;;;;;;3.73;0.60;;;10.30;99.90;;;;;;5053826;28;20442;-55
2024/01/03 06:01:09;;;;;;;0.77;0.30;;;10.30;99.90;;;;;;5053722;28;20083;-52
2024/01/03 06:03:35;;;;;;;2.57;0.60;;;10.30;99.90;;;;;;5035978;28;20031;-54
2024/01/03 06:06:00;;;;;;;4.10;0.50;;;10.20;99.90;;;;;;5035781;28;20493;-51
2024/01/03 06:08:26;;;;;;;1.90;0.50;;;10.20;99.90;;;;;;5053678;28;20087;-51
2024/01/03 06:10:51;;;;;;;3.50;0.70;;;10.20;99.90;;;;;;5053456;28;20505;-55
2024/01/03 06:13:17;;;;;;;7.33;0.90;;;10.20;99.90;;;;;;5053504;28;20029;-53
2024/01/03 06:15:43;;;;;;;5.67;1.53;;;10.20;99.90;;;;;;5053597;28;20132;-52
2024/01/03 06:18:10;;;;;;;4.80;1.00;;;10.20;99.90;;;;;;5053430;28;20554;-53
2024/01/03 06:20:35;;;;;;;2.03;0.67;;;10.20;99.90;;;;;;5053268;28;20071;-53
2024/01/03 06:23:01;;;;;;;3.13;0.77;;;10.20;99.90;;;;;;5053298;28;20060;-55
2024/01/03 06:25:26;;;;;;;4.50;0.63;;;10.20;99.90;;;;;;5053346;28;20028;-55
2024/01/03 06:27:53;;;;;;;3.23;0.90;;;10.20;99.90;;;;;;5035466;28;20029;-51
2024/01/03 06:30:19;;;;;;;4.23;0.63;;;10.20;99.90;;;;;;5053130;28;20033;-52
2024/01/03 06:32:45;;;;;;;3.50;0.70;;;10.20;99.90;;;;;;5053050;28;20371;-51
2024/01/03 06:35:10;;;;;;;5.43;0.50;;;10.20;99.90;;;;;;5053092;28;20115;-55
2024/01/03 06:37:36;;;;;;;4.93;1.53;;;10.20;99.90;;;;;;5053141;28;20036;-56
2024/01/03 06:40:02;;;;;;;4.90;0.80;;;10.20;99.90;;;;;;5034963;28;20029;-56
2024/01/03 06:42:27;;;;;;;8.90;1.03;;;10.10;99.90;;;;;;5053048;28;20402;-55
2024/01/03 06:44:53;;;;;;;4.83;0.73;;;10.10;99.90;;;;;;5052908;28;20032;-55
2024/01/03 06:47:19;;;;;;;7.07;1.37;;;10.10;99.90;;;;;;5053038;28;20064;-51
2024/01/03 06:49:45;;;;;;;10.97;2.17;;;10.10;99.90;;;;;;5052592;28;20539;-54
2024/01/03 06:52:10;;;;;;;6.37;1.43;;;10.10;99.90;;;;;;5034903;28;20041;-55
2024/01/03 06:54:36;;;;;;;7.93;1.67;;;10.10;99.90;;;;;;5052857;28;20115;-52
2024/01/03 06:57:03;;;;;;;7.17;1.23;;;10.00;99.90;;;;;;5052769;28;20029;-52
2024/01/03 06:59:29;;;;;;;3.10;0.40;;;9.90;99.90;;;;;;5052859;28;20036;-54
2024/01/03 07:01:54;;;;;;;4.10;0.97;;;9.80;99.90;;;;;;5052547;28;20037;-53
2024/01/03 07:04:22;;;;;;;5.40;0.70;;;9.80;99.90;;;;;;5052587;28;20033;-52
2024/01/03 07:06:47;;;;;;;5.10;0.90;;;9.80;99.90;;;;;;5051940;28;20068;-54
2024/01/03 07:09:14;;;;;;;4.23;0.70;;;9.70;99.90;;;;;;5052419;28;20060;-54
2024/01/03 07:11:39;;;;;;;3.57;1.03;;;9.60;99.90;;;;;;5052483;28;20397;-50
2024/01/03 07:14:05;;;;;;;6.77;1.03;;;9.60;99.90;;;;;;5052484;28;20017;-56
2024/01/03 07:16:30;;;;;;;6.57;1.37;;;9.50;99.90;;;;;;5052466;28;20028;-52
2024/01/03 07:18:56;;;;;;;7.93;1.10;;;9.50;99.90;;;;;;5052032;28;20120;-56
2024/01/03 07:21:22;;;;;;;3.23;0.90;;;9.50;99.90;;;;;;5052384;28;20112;-56
2024/01/03 07:23:48;;;;;;;6.43;2.00;;;9.50;99.90;;;;;;5052286;28;20083;-52
2024/01/03 07:26:14;;;;;;;6.30;1.47;;;9.40;99.90;;;;;;5052489;28;20485;-55
2024/01/03 07:28:39;;;;;;;6.93;1.87;;;9.40;99.90;;;;;;5052083;28;20035;-56
2024/01/03 07:31:05;;;;;;;8.37;2.77;;;9.40;99.90;;;;;;5052042;28;20039;-53
2024/01/03 07:33:31;;;;;;;9.83;2.50;;;9.40;99.90;;;;;;5051900;28;20040;-53
2024/01/03 07:35:56;;;;;;;9.93;1.90;;;9.30;99.90;;;;;;5052136;28;20025;-53
2024/01/03 07:38:22;;;;;;;11.27;2.77;;;9.40;99.90;;;;;;5052064;28;20082;-55
2024/01/03 07:40:48;;;;;;;4.60;1.63;;;9.50;99.90;;;;;;5051835;28;20021;-54
2024/01/03 07:43:13;;;;;;;11.77;2.40;;;9.40;99.90;;;;;;5051954;28;20507;-56
2024/01/03 07:45:39;;;;;;;7.93;1.63;;;9.40;99.90;;;;;;5051842;28;20041;-51
2024/01/03 07:48:05;;;;;;;7.93;1.93;;;9.50;99.90;;;;;;5051774;28;20047;-55
2024/01/03 07:50:31;;;;;;;7.10;1.30;;;9.60;99.90;;;;;;5051699;28;20592;-55
2024/01/03 07:52:56;;;;;;;8.43;1.60;;;9.60;99.90;;;;;;5051722;28;20025;-54
2024/01/03 07:55:23;;;;;;;10.10;1.27;;;9.60;99.90;;;;;;5051771;28;20027;-51
2024/01/03 07:57:49;;;;;;;5.20;0.90;;;9.70;99.90;;;;;;5052169;28;20124;-54
2024/01/03 08:00:15;;;;;;;7.63;1.20;;;9.80;99.90;;;;;;5051442;28;20104;-55
2024/01/03 08:02:40;;;;;;;1.47;0.50;;;9.80;99.90;;;;;;5051669;28;20036;-54
2024/01/03 08:05:07;;;;;;;3.37;0.80;;;9.80;99.90;;;;;;5051952;28;20021;-52
2024/01/03 08:07:33;;;;;;;1.53;0.40;;;9.70;99.90;;;;;;5051726;28;20040;-54
2024/01/03 08:09:59;;;;;;;4.30;0.70;;;9.70;99.90;;;;;;5051441;28;20032;-51
2024/01/03 08:12:24;;;;;;;4.20;1.00;;;9.70;99.90;;;;;;5051486;28;20044;-55
2024/01/03 08:14:50;;;;;;;3.40;1.03;;;9.70;99.90;;;;;;5052062;28;20029;-54
2024/01/03 08:17:16;;;;;;;2.87;0.37;;;9.60;99.90;;;;;;5035153;28;20029;-56
2024/01/03 08:19:41;;;;;;;2.57;0.50;;;9.60;99.90;;;;;;5055628;28;20104;-51
2024/01/03 08:22:07;;;;;;;1.50;0.30;;;9.60;99.90;;;;;;5055631;28;20433;-52
2024/01/03 08:24:33;;;;;;;0.97;0.33;;;9.50;99.90;;;;;;5055625;28;20040;-54
2024/01/03 08:26:59;;;;;;;0.93;0.63;;;9.40;99.90;;;;;;5055581;28;20040;-55
2024/01/03 08:29:24;;;;;;;4.17;0.50;;;9.40;99.90;;;;;;5055328;28;20044;-54
2024/01/03 08:31:50;;;;;;;1.67;0.60;;;9.30;99.90;;;;;;5055848;28;20115;-54
2024/01/03 08:34:15;;;;;;;3.87;0.40;;;9.30;99.90;;;;;;5055423;28;20025;-56
2024/01/03 08:36:45;;;;;;;1.30;0.67;;;9.30;99.90;;;;;;5055532;28;20025;-55
2024/01/03 08:39:11;;;;;;;3.67;0.60;;;9.30;99.90;;;;;;5055060;28;20032;-53
2024/01/03 08:41:37;;;;;;;5.83;1.20;;;9.30;99.90;;;;;;5055317;28;20029;-53
2024/01/03 08:44:05;;;;;;;4.70;0.50;;;9.30;99.90;;;;;;5070068;22;20049;-51
2024/01/03 08:46:41;;;;;;;2.07;0.63;;;9.30;99.90;;;;;;5055184;28;20049;-54
2024/01/03 08:49:07;;;;;;;3.93;0.73;;;9.30;99.90;;;;;;5054982;28;20064;-53
2024/01/03 08:51:33;;;;;;;3.37;0.47;;;9.30;99.90;;;;;;5055032;28;20028;-52
2024/01/03 08:53:59;;;;;;;2.00;0.50;;;9.30;99.90;;;;;;5055045;28;20029;-54
2024/01/03 08:56:24;;;;;;;3.03;0.80;;;9.30;99.90;;;;;;5055049;28;20111;-53
2024/01/03 08:58:51;;;;;;;4.50;0.87;;;9.30;99.90;;;;;;5054671;28;20124;-53
2024/01/03 09:01:17;;;;;;;4.50;0.80;;;9.30;99.90;;;;;;5055027;28;20029;-54
2024/01/03 09:03:43;;;;;;;4.33;0.90;;;9.40;99.90;;;;;;5054998;28;20025;-54
2024/01/03 09:06:09;;;;;;;5.23;1.00;;;9.50;99.90;;;;;;5054960;28;20025;-51
2024/01/03 09:08:35;;;;;;;6.50;1.10;;;9.60;99.90;;;;;;5036962;28;20044;-54
2024/01/03 09:11:00;;;;;;;2.77;0.60;;;9.60;99.90;;;;;;5054679;28;20025;-51
2024/01/03 09:13:28;;;;;;;4.80;0.77;;;9.60;99.90;;;;;;5054599;28;20041;-54
2024/01/03 09:15:53;;;;;;;3.70;1.17;;;9.70;99.90;;;;;;5054696;28;20029;-51
2024/01/03 09:18:19;;;;;;;4.00;0.80;;;9.70;99.90;;;;;;5054531;28;20040;-51
2024/01/03 09:20:44;;;;;;;2.40;0.60;;;9.70;99.90;;;;;;5054390;28;20021;-56
2024/01/03 09:23:10;;;;;;;9.97;1.13;;;9.80;99.90;;;;;;5054337;28;20484;-56
2024/01/03 09:25:35;;;;;;;6.43;1.30;;;9.80;99.90;;;;;;5054580;28;20036;-55
2024/01/03 09:28:01;;;;;;;7.10;1.13;;;9.80;99.90;;;;;;5054359;28;20508;-52
2024/01/03 09:30:27;;;;;;;7.47;1.70;;;9.80;99.90;;;;;;5053666;28;20083;-54
2024/01/03 09:32:53;;;;;;;7.03;1.13;;;9.80;99.90;;;;;;5054300;28;20036;-55
2024/01/03 09:35:19;;;;;;;6.90;1.43;;;9.90;99.90;;;;;;5054388;28;20394;-53
2024/01/03 09:37:45;;;;;;;5.93;0.87;;;9.90;99.90;;;;;;5054285;28;20032;-54
2024/01/03 09:40:12;;;;;;;7.67;1.50;;;10.00;99.90;;;;;;5054039;28;20017;-55
2024/01/03 09:42:38;;;;;;;5.20;0.97;;;10.00;99.90;;;;;;5054028;28;20063;-51
2024/01/03 09:45:04;;;;;;;7.87;1.47;;;9.90;99.90;;;;;;5054013;28;20060;-55
2024/01/03 09:47:30;;;;;;;6.13;1.10;;;9.80;99.90;;;;;;5054159;28;20569;-55
2024/01/03 09:49:55;;;;;;;8.17;1.13;;;9.70;99.90;;;;;;5053845;28;20128;-52
2024/01/03 09:52:22;;;;;;;4.90;1.10;;;9.60;99.90;;;;;;5053926;28;20071;-53
2024/01/03 09:54:48;;;;;;;7.03;1.03;;;9.60;99.90;;;;;;5053968;28;20033;-55
2024/01/03 09:57:15;;;;;;;9.03;1.50;;;9.60;99.90;;;;;;5053905;28;20025;-53
2024/01/03 09:59:41;;;;;;;10.23;1.10;;;9.70;99.90;;;;;;5035794;28;20057;-54
2024/01/03 10:02:06;;;;;;;7.67;1.20;;;9.70;99.90;;;;;;5053764;28;20461;-53
2024/01/03 10:04:33;;;;;;;7.00;0.90;;;9.80;99.90;;;;;;5053799;28;20037;-53
2024/01/03 10:06:59;;;;;;;9.07;1.70;;;9.90;99.90;;;;;;5053891;28;20033;-52
2024/01/03 10:09:38;;;;;;;5.37;1.00;;;10.10;99.90;;;;;;5053493;28;20152;-51
2024/01/03 10:12:15;;;;;;;5.30;1.02;;;10.30;99.90;;;;;;5035733;28;20085;-52
2024/01/03 10:14:41;;;;;;;5.33;0.90;;;10.60;99.90;;;;;;5053647;28;20570;-53
2024/01/03 10:17:10;;;;;;;7.37;0.80;;;10.80;99.90;;;;;;5053627;28;20163;-53
2024/01/03 10:19:36;;;;;;;5.40;1.10;;;10.90;99.90;;;;;;5053374;28;20040;-51
2024/01/03 10:22:02;;;;;;;9.63;1.00;;;11.00;99.90;;;;;;5053419;28;20025;-55
2024/01/03 10:24:29;;;;;;;6.73;1.07;;;11.00;99.90;;;;;;5053444;28;20029;-54
2024/01/03 10:26:55;;;;;;;2.00;0.80;;;11.00;99.90;;;;;;5053488;28;20040;-56
2024/01/03 10:29:21;;;;;;;6.57;1.50;;;11.00;99.90;;;;;;5053014;28;20028;-54
2024/01/03 10:31:48;;;;;;;9.80;1.40;;;11.00;99.90;;;;;;5053190;28;20486;-54
2024/01/03 10:34:21;;;;;;;5.27;1.00;;;10.90;99.90;;;;;;5053341;28;20032;-54
2024/01/03 10:36:47;;;;;;;7.43;1.07;;;10.90;99.90;;;;;;5053218;28;20037;-53
2024/01/03 10:39:16;;;;;;;5.40;1.20;;;10.90;99.90;;;;;;5052903;28;20086;-53
2024/01/03 10:41:45;;;;;;;9.25;1.33;;;11.00;99.90;;;;;;5052144;28;20025;-55
2024/01/03 10:44:14;;;;;;;8.83;1.40;;;11.20;99.90;;;;;;5053070;28;20083;-55
2024/01/03 10:46:44;;;;;;;5.90;0.90;;;11.40;99.90;;;;;;5053130;28;20027;-53
2024/01/03 10:49:10;;;;;;;8.33;1.60;;;11.50;99.90;;;;;;5052702;28;20047;-53
2024/01/03 10:51:40;;;;;;;5.10;1.10;;;11.50;99.90;;;;;;5035085;28;20025;-55
2024/01/03 10:54:16;;;;;;;6.33;1.10;;;11.40;99.90;;;;;;5052893;28;20028;-55
2024/01/03 10:56:48;;;;;;;11.80;2.97;;;11.30;99.90;;;;;;5052872;28;20036;-50
2024/01/03 10:59:14;;;;;;;9.33;2.00;;;11.30;99.90;;;;;;5052567;28;20032;-53
2024/01/03 11:02:02;;;;;;;3.20;1.00;;;11.20;99.90;;;;;;5052567;28;20079;-54
2024/01/03 11:04:46;;;;;;;6.73;1.07;;;11.20;99.90;;;;;;5052661;28;20116;-55
2024/01/03 11:07:29;;;;;;;5.67;1.13;;;11.10;99.90;;;;;;5052706;28;20037;-56
2024/01/03 11:09:55;;;;;;;7.57;1.17;;;11.10;99.90;;;;;;5052307;28;20035;-55
2024/01/03 11:12:27;;;;;;;7.83;1.17;;;10.90;99.90;;;;;;5052350;28;20033;-54
2024/01/03 11:14:52;;;;;;;6.70;1.40;;;10.90;99.90;;;;;;5052548;28;20150;-54
2024/01/03 11:17:33;;;;;;;9.60;1.33;;;10.80;99.90;;;;;;5034647;28;20025;-55
2024/01/03 11:20:06;;;;;;;6.50;0.93;;;10.80;99.90;;;;;;5052266;28;20029;-54
2024/01/03 11:22:54;;;;;;;8.03;1.13;;;10.70;99.90;;;;;;5052225;28;20033;-52
2024/01/03 11:25:47;;;;;;;10.77;1.33;;;10.60;99.90;;;;;;5052281;28;20107;-53
2024/01/03 11:28:32;;;;;;;7.13;1.10;;;10.50;99.90;;;;;;5052154;28;20032;-54
2024/01/03 11:30:59;;;;;;;7.67;1.17;;;10.50;99.90;;;;;;5052081;28;20036;-54
2024/01/03 11:33:28;;;;;;;8.40;1.07;;;10.50;99.90;;;;;;5052044;28;20075;-55
2024/01/03 11:35:54;;;;;;;8.48;1.33;;;10.50;99.90;;;;;;5052148;28;20371;-55
2024/01/03 11:38:39;;;;;;;9.13;1.63;;;10.50;99.90;;;;;;5052144;28;20040;-55
2024/01/03 11:41:05;;;;;;;6.33;1.30;;;10.70;99.90;;;;;;5051892;28;20025;-56
2024/01/03 11:43:30;;;;;;;9.53;1.40;;;11.00;99.90;;;;;;5051898;28;20025;-55
2024/01/03 11:46:07;;;;;;;5.97;1.10;;;11.30;99.90;;;;;;5051976;28;20067;-54
2024/01/03 11:48:33;;;;;;;11.80;1.17;;;11.40;99.90;;;;;;5051755;28;20065;-56
2024/01/03 11:50:59;;;;;;;10.40;1.17;;;11.40;99.90;;;;;;5052091;28;20036;-50
2024/01/03 11:53:24;;;;;;;6.87;1.33;;;11.40;99.90;;;;;;5051442;28;20025;-54
2024/01/03 11:55:53;;;;;;;4.40;1.00;;;11.30;99.90;;;;;;5051815;28;20031;-52
2024/01/03 11:58:19;;;;;;;5.47;1.33;;;11.30;99.90;;;;;;5051802;28;20029;-55
2024/01/03 12:00:45;;;;;;;8.37;1.37;;;11.20;99.90;;;;;;5051589;28;20536;-55
2024/01/03 12:03:17;;;;;;;11.50;3.43;;;11.10;99.90;;;;;;5051648;28;20116;-55
2024/01/03 12:05:45;;;;;;;6.77;1.83;;;11.20;99.90;;;;;;5051760;28;20044;-53
2024/01/03 12:08:13;;;;;;;8.75;1.20;;;11.20;99.90;;;;;;5051714;28;20033;-53
2024/01/03 12:10:40;;;;;;;8.00;1.20;;;11.20;99.90;;;;;;5051415;28;20060;-55
2024/01/03 12:13:07;;;;;;;6.70;1.40;;;11.20;99.90;;;;;;5051435;28;20091;-52
2024/01/03 12:15:33;;;;;;;7.07;0.90;;;11.20;99.90;;;;;;5051647;28;20067;-54
2024/01/03 12:18:07;;;;;;;5.93;0.97;;;11.20;99.90;;;;;;5051598;28;20037;-58
2024/01/03 12:20:33;;;;;;;6.67;1.00;;;11.20;99.90;;;;;;5051431;28;20033;-55
2024/01/03 12:23:14;;;;;;;6.13;0.90;;;11.20;99.90;;;;;;5051436;28;20064;-56
2024/01/03 12:25:41;;;;;;;7.53;1.07;;;11.20;99.90;;;;;;5051581;28;20032;-56
2024/01/03 12:28:07;;;;;;;5.93;1.10;;;11.20;99.90;;;;;;5051487;28;20041;-56
2024/01/03 12:30:32;;;;;;;5.47;0.97;;;11.30;99.90;;;;;;5051329;28;20029;-55
2024/01/03 12:33:18;;;;;;;6.40;1.43;;;11.30;99.90;;;;;;5051264;28;20084;-53
2024/01/03 12:35:48;;;;;;;5.60;0.97;;;11.30;99.90;;;;;;5051130;28;20080;-55
2024/01/03 12:38:14;;;;;;;4.87;0.83;;;11.30;99.90;;;;;;5051454;28;20028;-55
2024/01/03 12:40:40;;;;;;;3.20;0.80;;;11.10;99.90;;;;;;5051195;28;20112;-52
2024/01/03 12:43:06;;;;;;;5.27;0.80;;;10.90;99.90;;;;;;5051314;28;20124;-53
2024/01/03 12:45:31;;;;;;;7.13;1.00;;;10.80;99.90;;;;;;5051226;28;20186;-55
2024/01/03 12:47:57;;;;;;;4.40;0.90;;;10.60;99.90;;;;;;5051450;28;20048;-53